Time;durP1;ratioP1;P1;durP2;ratioP2;P2;SDS_P1;SDS_P2;PMS_P1;PMS_P2;Temp;Humidity;BMP_temperature;BMP_pressure;BME280_temperature;BME280_humidity;BME280_pressure;Samples;Min_cycle;Max_cycle;Signal;HPM_P1;HPM_P2
2023/09/07 00:00:42;;;;;;;5.25;4.55;;;21.40;71.40;;;;;;4994944;28;20203;-80
2023/09/07 00:03:09;;;;;;;5.65;4.55;;;21.50;1.00;;;;;;4992857;28;20195;-80
2023/09/07 00:05:37;;;;;;;5.28;4.72;;;21.60;99.90;;;;;;4995584;28;20215;-80
2023/09/07 00:08:05;;;;;;;6.28;4.97;;;21.60;99.90;;;;;;4986010;28;20663;-80
2023/09/07 00:10:35;;;;;;;4.85;4.45;;;21.60;99.90;;;;;;4999132;28;20200;-80
2023/09/07 00:13:03;;;;;;;4.75;4.35;;;21.60;99.90;;;;;;4989928;28;20209;-80
2023/09/07 00:15:30;;;;;;;6.03;5.03;;;21.60;99.90;;;;;;4992419;28;20205;-80
2023/09/07 00:17:59;;;;;;;6.10;4.47;;;21.60;99.90;;;;;;4996683;28;20200;-80
2023/09/07 00:20:27;;;;;;;6.50;5.03;;;21.50;1.00;;;;;;4999518;28;20224;-80
2023/09/07 00:22:55;;;;;;;5.53;4.63;;;21.60;1.00;;;;;;4997728;28;20536;-80
2023/09/07 00:25:23;;;;;;;5.20;4.70;;;21.60;1.00;;;;;;5004248;28;20211;-80
2023/09/07 00:27:50;;;;;;;5.30;4.63;;;21.60;1.00;;;;;;4999484;28;20196;-80
2023/09/07 00:30:18;;;;;;;5.78;4.20;;;21.50;1.00;;;;;;4998479;28;20221;-80
2023/09/07 00:32:45;;;;;;;5.40;4.70;;;21.50;1.00;;;;;;4998265;28;20203;-80
2023/09/07 00:35:14;;;;;;;6.38;5.30;;;21.50;1.00;;;;;;5013694;28;20195;-80
2023/09/07 00:37:41;;;;;;;5.50;4.43;;;21.60;1.00;;;;;;5003455;28;20227;-80
2023/09/07 00:40:09;;;;;;;6.05;4.75;;;21.60;1.00;;;;;;5001407;28;20216;-80
2023/09/07 00:42:37;;;;;;;5.78;4.63;;;21.70;1.00;;;;;;5003075;28;20195;-80
2023/09/07 00:45:05;;;;;;;5.70;4.30;;;21.70;1.00;;;;;;4998509;28;20197;-80
2023/09/07 00:47:35;;;;;;;6.15;4.57;;;21.60;1.00;;;;;;4998521;28;20201;-80
2023/09/07 00:50:04;;;;;;;6.72;4.90;;;21.60;1.00;;;;;;4993549;28;20231;-80
2023/09/07 00:52:35;;;;;;;4.93;4.50;;;21.60;1.00;;;;;;5004280;28;20195;-80
2023/09/07 00:55:04;;;;;;;5.47;4.45;;;21.50;1.00;;;;;;5004021;28;20216;-80
2023/09/07 00:57:32;;;;;;;5.38;4.57;;;21.50;1.00;;;;;;5017618;28;20205;-80
2023/09/07 00:59:59;;;;;;;4.60;4.20;;;21.40;1.00;;;;;;4999996;28;20227;-80
2023/09/07 01:02:28;;;;;;;5.15;4.65;;;21.40;1.00;;;;;;5003354;28;20207;-80
2023/09/07 01:04:56;;;;;;;4.30;3.90;;;21.50;1.00;;;;;;5000155;28;20211;-80
2023/09/07 01:07:27;;;;;;;6.68;4.90;;;21.50;1.00;;;;;;5001455;28;20204;-80
2023/09/07 01:10:00;;;;;;;6.13;4.82;;;21.50;1.00;;;;;;5006009;28;20223;-80
2023/09/07 01:12:28;;;;;;;5.65;4.03;;;21.60;1.00;;;;;;4996891;28;20201;-80
2023/09/07 01:14:55;;;;;;;5.70;4.50;;;21.60;99.90;;;;;;4999638;28;20240;-80
2023/09/07 01:17:23;;;;;;;5.45;4.15;;;21.50;99.90;;;;;;5002585;28;20205;-80
2023/09/07 01:19:53;;;;;;;5.40;4.13;;;21.60;99.90;;;;;;4991639;28;20220;-80
2023/09/07 01:22:23;;;;;;;4.68;4.25;;;21.40;99.90;;;;;;4998860;28;20212;-80
2023/09/07 01:24:52;;;;;;;7.05;4.50;;;21.50;99.90;;;;;;4998498;28;20197;-80
2023/09/07 01:27:19;;;;;;;4.45;3.95;;;21.50;99.90;;;;;;5003323;28;20223;-80
2023/09/07 01:29:47;;;;;;;4.72;4.32;;;21.50;99.90;;;;;;4989443;28;20224;-80
2023/09/07 01:32:14;;;;;;;4.88;4.25;;;21.50;99.90;;;;;;5000932;28;20207;-80
2023/09/07 01:34:42;;;;;;;5.65;4.22;;;21.50;99.90;;;;;;5021698;28;20225;-80
2023/09/07 01:37:10;;;;;;;4.53;4.13;;;21.30;99.90;;;;;;4999133;28;20211;-80
2023/09/07 01:39:39;;;;;;;4.60;4.20;;;21.10;99.90;;;;;;4996312;28;20229;-80
2023/09/07 01:42:06;;;;;;;6.03;4.40;;;21.10;1.00;;;;;;5001697;28;20193;-80
2023/09/07 01:44:35;;;;;;;4.80;4.25;;;21.00;1.00;;;;;;4999568;28;20207;-80
2023/09/07 01:47:02;;;;;;;6.20;4.68;;;21.00;1.00;;;;;;4995822;28;20659;-80
2023/09/07 01:49:30;;;;;;;5.75;4.50;;;21.00;1.00;;;;;;5003795;28;20232;-80
2023/09/07 01:51:57;;;;;;;6.15;4.43;;;20.90;1.00;;;;;;4999519;28;20207;-80
2023/09/07 01:54:25;;;;;;;4.78;4.07;;;20.70;1.00;;;;;;4991977;28;20213;-80
2023/09/07 01:56:53;;;;;;;6.00;4.40;;;20.70;1.00;;;;;;4998977;28;20207;-79
2023/09/07 01:59:21;;;;;;;5.28;4.30;;;20.60;99.90;;;;;;4996347;28;20231;-79
2023/09/07 02:01:48;;;;;;;6.45;4.20;;;20.60;99.90;;;;;;5000622;28;20208;-80
2023/09/07 02:04:15;;;;;;;6.68;4.60;;;20.60;99.90;;;;;;5001499;28;20184;-79
2023/09/07 02:06:43;;;;;;;4.90;4.28;;;20.60;99.90;;;;;;4998212;28;20212;-80
2023/09/07 02:09:10;;;;;;;4.60;3.83;;;20.60;99.90;;;;;;4996123;28;20229;-80
2023/09/07 02:11:39;;;;;;;4.90;4.40;;;20.50;99.90;;;;;;4992432;28;20691;-80
2023/09/07 02:14:08;;;;;;;4.70;4.28;;;20.50;99.90;;;;;;4991917;28;20618;-80
2023/09/07 02:16:36;;;;;;;5.55;4.75;;;20.40;1.00;;;;;;4995934;28;20204;-79
2023/09/07 02:19:06;;;;;;;5.25;4.75;;;20.40;1.00;;;;;;4999578;28;20220;-80
2023/09/07 02:21:34;;;;;;;5.63;4.50;;;20.30;1.00;;;;;;4997575;28;20212;-80
2023/09/07 02:24:01;;;;;;;6.45;4.47;;;20.30;1.00;;;;;;4998324;28;20297;-80
2023/09/07 02:26:28;;;;;;;6.28;4.72;;;20.30;1.60;;;;;;4995449;28;20201;-80
2023/09/07 02:28:56;;;;;;;5.03;4.57;;;20.20;59.30;;;;;;4997216;28;20561;-80
2023/09/07 02:31:24;;;;;;;5.25;4.70;;;20.20;99.90;;;;;;5008813;28;20205;-80
2023/09/07 02:33:52;;;;;;;8.35;4.82;;;20.20;1.00;;;;;;4997365;28;20200;-80
2023/09/07 02:36:19;;;;;;;5.65;3.97;;;20.30;75.70;;;;;;4997409;28;20201;-80
2023/09/07 02:38:47;;;;;;;4.53;4.13;;;20.30;1.00;;;;;;4997337;28;20225;-80
2023/09/07 02:41:14;;;;;;;5.60;5.05;;;20.20;1.00;;;;;;5002816;28;20274;-79
2023/09/07 02:43:41;;;;;;;6.00;4.38;;;20.30;1.00;;;;;;5002141;28;20211;-80
2023/09/07 02:46:11;;;;;;;4.88;4.38;;;20.30;1.00;;;;;;4993659;28;20209;-80
2023/09/07 02:48:40;;;;;;;7.93;5.45;;;20.30;1.00;;;;;;4998906;28;20215;-80
2023/09/07 02:51:07;;;;;;;5.45;4.40;;;20.30;99.90;;;;;;4995558;28;20200;-80
2023/09/07 02:53:34;;;;;;;4.95;4.45;;;20.30;1.00;;;;;;5002370;28;20200;-80
2023/09/07 02:56:04;;;;;;;5.18;4.60;;;20.30;99.90;;;;;;5012403;28;20231;-80
2023/09/07 02:58:33;;;;;;;7.05;4.40;;;20.30;1.00;;;;;;4998414;28;20224;-80
2023/09/07 03:01:00;;;;;;;5.45;4.55;;;20.30;1.00;;;;;;4997790;28;20212;-80
2023/09/07 03:03:28;;;;;;;5.60;4.22;;;20.40;99.90;;;;;;4994791;28;20199;-80
2023/09/07 03:05:57;;;;;;;6.55;5.18;;;20.40;99.90;;;;;;4996734;28;20208;-80
2023/09/07 03:08:25;;;;;;;5.25;4.75;;;20.50;99.90;;;;;;4993255;28;20208;-80
2023/09/07 03:10:52;;;;;;;7.22;5.10;;;20.40;99.90;;;;;;4996766;28;20209;-80
2023/09/07 03:13:20;;;;;;;6.50;5.00;;;20.40;89.60;;;;;;4997062;28;20200;-80
2023/09/07 03:15:47;;;;;;;5.22;4.72;;;20.40;99.90;;;;;;4998240;28;20220;-79
2023/09/07 03:18:15;;;;;;;5.25;4.40;;;20.40;99.90;;;;;;4998736;28;20192;-80
2023/09/07 03:20:43;;;;;;;6.07;5.38;;;20.30;99.90;;;;;;4995130;28;20208;-80
2023/09/07 03:23:13;;;;;;;5.60;5.05;;;20.30;99.90;;;;;;4997060;28;20220;-79
2023/09/07 03:25:40;;;;;;;5.80;5.03;;;20.30;99.90;;;;;;4994635;28;20208;-80
2023/09/07 03:28:07;;;;;;;5.82;4.95;;;20.30;99.90;;;;;;4998272;28;20196;-80
2023/09/07 03:30:37;;;;;;;5.68;5.00;;;20.30;99.90;;;;;;4993570;28;20193;-79
2023/09/07 03:33:06;;;;;;;5.72;4.90;;;20.30;99.90;;;;;;4990504;28;20207;-80
2023/09/07 03:35:33;;;;;;;7.28;5.05;;;20.10;99.90;;;;;;4997703;28;20259;-80
2023/09/07 03:38:01;;;;;;;5.47;4.80;;;20.20;99.90;;;;;;4996992;28;20569;-80
2023/09/07 03:40:30;;;;;;;5.13;4.57;;;20.20;99.90;;;;;;4998878;28;20220;-79
2023/09/07 03:42:58;;;;;;;6.18;4.35;;;20.30;99.90;;;;;;4996728;28;20201;-80
2023/09/07 03:45:27;;;;;;;4.68;4.28;;;20.30;99.90;;;;;;4993149;28;20583;-80
2023/09/07 03:47:55;;;;;;;5.60;5.05;;;20.20;99.90;;;;;;4997538;28;20207;-80
2023/09/07 03:50:22;;;;;;;6.70;5.32;;;20.20;99.90;;;;;;4997060;28;20234;-80
2023/09/07 03:52:50;;;;;;;7.53;5.00;;;20.20;99.90;;;;;;4996237;28;20666;-80
2023/09/07 03:55:18;;;;;;;5.88;4.75;;;20.20;99.90;;;;;;4995860;28;20698;-80
2023/09/07 03:57:46;;;;;;;6.22;5.15;;;20.20;99.90;;;;;;4992320;28;20212;-80
2023/09/07 04:00:15;;;;;;;5.43;4.85;;;20.30;1.00;;;;;;4997843;28;20220;-79
2023/09/07 04:02:47;;;;;;;5.07;4.57;;;20.30;1.00;;;;;;4997539;28;20208;-79
2023/09/07 04:05:15;;;;;;;9.02;5.05;;;20.30;1.00;;;;;;4998167;28;20196;-80
2023/09/07 04:07:43;;;;;;;5.97;5.35;;;20.30;1.00;;;;;;5000063;28;20204;-80
2023/09/07 04:10:10;;;;;;;7.18;5.25;;;20.30;1.00;;;;;;5006829;28;20220;-80
2023/09/07 04:12:38;;;;;;;5.43;4.85;;;20.20;1.00;;;;;;5004652;28;20200;-79
2023/09/07 04:15:08;;;;;;;6.60;5.30;;;20.10;16.10;;;;;;5002611;28;20231;-80
2023/09/07 04:17:40;;;;;;;5.30;4.80;;;20.10;1.00;;;;;;4998696;28;20209;-80
2023/09/07 04:20:11;;;;;;;5.30;4.65;;;20.10;51.30;;;;;;5016570;28;20220;-80
2023/09/07 04:22:39;;;;;;;6.65;5.00;;;20.10;8.00;;;;;;5004050;28;20201;-80
2023/09/07 04:25:07;;;;;;;6.78;5.38;;;20.00;99.90;;;;;;5012693;28;20197;-78
2023/09/07 04:27:35;;;;;;;6.15;5.47;;;19.90;7.00;;;;;;4997679;28;20205;-78
2023/09/07 04:30:02;;;;;;;6.40;4.78;;;19.70;99.90;;;;;;4998736;28;20231;-78
2023/09/07 04:32:32;;;;;;;5.70;5.10;;;19.80;68.60;;;;;;4999597;28;20193;-78
2023/09/07 04:35:01;;;;;;;8.45;7.65;;;19.60;99.90;;;;;;4997444;28;20224;-78
2023/09/07 04:37:28;;;;;;;8.80;7.18;;;19.60;99.90;;;;;;4994581;28;20201;-78
2023/09/07 04:39:56;;;;;;;14.65;10.82;;;19.50;99.90;;;;;;5003498;28;20226;-78
2023/09/07 04:42:25;;;;;;;8.48;5.80;;;19.60;1.00;;;;;;5002210;28;20699;-78
2023/09/07 04:44:52;;;;;;;8.95;5.30;;;19.50;1.00;;;;;;4996448;28;20200;-78
2023/09/07 04:47:19;;;;;;;9.90;5.00;;;19.60;1.00;;;;;;4997955;28;20200;-80
2023/09/07 04:49:51;;;;;;;5.50;5.00;;;19.80;1.00;;;;;;5000547;28;20219;-78
2023/09/07 04:52:20;;;;;;;7.05;5.60;;;19.80;99.90;;;;;;4990696;28;20203;-78
2023/09/07 04:54:48;;;;;;;8.70;5.32;;;19.80;99.90;;;;;;5004406;28;20196;-78
2023/09/07 04:57:18;;;;;;;8.60;5.45;;;19.60;99.90;;;;;;4992328;28;20197;-78
2023/09/07 04:59:46;;;;;;;6.38;5.47;;;19.60;99.90;;;;;;4994664;28;20690;-78
2023/09/07 05:02:13;;;;;;;8.88;5.88;;;19.60;1.00;;;;;;4995509;28;20472;-78
2023/09/07 05:04:41;;;;;;;5.30;4.78;;;19.70;1.00;;;;;;4991182;28;20201;-78
2023/09/07 05:07:10;;;;;;;8.23;5.28;;;19.80;99.90;;;;;;4992711;28;20207;-78
2023/09/07 05:09:37;;;;;;;6.80;5.13;;;19.90;98.70;;;;;;4992143;28;20224;-78
2023/09/07 05:12:04;;;;;;;6.72;4.63;;;19.80;98.20;;;;;;4995842;28;20199;-78
2023/09/07 05:14:32;;;;;;;6.90;5.40;;;19.80;99.90;;;;;;4993999;28;20208;-78
2023/09/07 05:17:00;;;;;;;8.52;5.18;;;19.90;1.00;;;;;;4998590;28;20216;-78
2023/09/07 05:19:28;;;;;;;7.65;5.18;;;19.80;48.20;;;;;;4998993;28;20219;-78
2023/09/07 05:21:55;;;;;;;6.65;5.57;;;19.80;99.90;;;;;;4997519;28;20196;-78
2023/09/07 05:24:24;;;;;;;6.18;5.55;;;19.80;99.90;;;;;;4994750;28;20208;-78
2023/09/07 05:26:53;;;;;;;7.53;5.50;;;19.80;99.90;;;;;;4994536;28;20193;-78
2023/09/07 05:29:22;;;;;;;8.18;4.85;;;19.70;99.90;;;;;;4988597;28;20220;-78
2023/09/07 05:31:50;;;;;;;7.00;4.93;;;19.80;99.90;;;;;;4989389;28;20212;-78
2023/09/07 05:34:17;;;;;;;7.57;5.53;;;19.80;76.90;;;;;;4996544;28;20200;-78
2023/09/07 05:36:46;;;;;;;7.90;5.40;;;19.80;26.30;;;;;;4993199;28;20232;-78
2023/09/07 05:39:13;;;;;;;8.93;5.15;;;19.90;1.00;;;;;;4996763;28;20227;-78
2023/09/07 05:41:43;;;;;;;8.38;5.22;;;19.90;1.00;;;;;;4997538;28;20204;-78
2023/09/07 05:44:11;;;;;;;7.15;6.15;;;19.90;1.00;;;;;;4996936;28;20651;-78
2023/09/07 05:46:38;;;;;;;6.15;5.10;;;20.00;1.00;;;;;;4993594;28;20200;-78
2023/09/07 05:49:05;;;;;;;8.00;5.38;;;20.00;1.00;;;;;;4996375;28;20232;-78
2023/09/07 05:51:33;;;;;;;5.78;5.18;;;20.10;1.00;;;;;;4994238;28;20213;-78
2023/09/07 05:54:00;;;;;;;6.70;5.45;;;20.10;1.00;;;;;;4995414;28;20200;-78
2023/09/07 05:56:30;;;;;;;7.93;5.28;;;20.00;1.00;;;;;;4994208;28;20213;-78
2023/09/07 05:58:59;;;;;;;6.30;5.28;;;20.10;1.00;;;;;;4992070;28;20225;-78
2023/09/07 06:01:26;;;;;;;5.80;5.18;;;19.90;1.00;;;;;;4994246;28;20201;-78
2023/09/07 06:03:54;;;;;;;6.28;5.53;;;19.90;1.00;;;;;;4991741;28;20208;-78
2023/09/07 06:06:21;;;;;;;7.43;5.43;;;20.10;3.80;;;;;;4993991;28;20201;-78
2023/09/07 06:08:49;;;;;;;7.63;5.82;;;20.20;1.00;;;;;;4999977;28;20796;-78
2023/09/07 06:11:17;;;;;;;14.27;7.88;;;20.40;1.00;;;;;;4994280;28;20671;-79
2023/09/07 06:13:45;;;;;;;8.15;6.95;;;20.50;1.00;;;;;;4996717;28;20196;-78
2023/09/07 06:16:14;;;;;;;11.05;7.72;;;20.60;1.00;;;;;;5001488;28;20223;-78
2023/09/07 06:18:42;;;;;;;9.00;6.32;;;20.50;1.00;;;;;;4995867;28;20227;-78
2023/09/07 06:21:10;;;;;;;9.57;6.70;;;20.50;1.00;;;;;;4995693;28;20200;-78
2023/09/07 06:23:37;;;;;;;9.35;6.05;;;20.40;1.00;;;;;;4992012;28;20208;-78
2023/09/07 06:26:04;;;;;;;8.75;5.82;;;20.50;1.00;;;;;;4995105;28;20193;-78
2023/09/07 06:28:33;;;;;;;14.80;6.70;;;20.60;1.00;;;;;;4995272;28;20216;-78
2023/09/07 06:31:01;;;;;;;9.55;6.25;;;20.60;1.00;;;;;;4994895;28;20204;-78
2023/09/07 06:33:30;;;;;;;10.25;6.50;;;20.70;1.00;;;;;;4996661;28;20208;-78
2023/09/07 06:36:01;;;;;;;10.73;5.95;;;20.70;1.00;;;;;;4993458;28;20213;-78
2023/09/07 06:38:28;;;;;;;9.38;5.50;;;20.80;1.00;;;;;;4995966;28;20216;-78
2023/09/07 06:40:56;;;;;;;14.75;6.50;;;21.00;1.00;;;;;;4997027;28;20691;-78
2023/09/07 06:43:23;;;;;;;13.85;6.57;;;21.00;1.00;;;;;;4994041;28;20201;-79
2023/09/07 06:45:51;;;;;;;13.43;6.40;;;21.20;1.00;;;;;;4992849;28;20659;-78
2023/09/07 06:48:18;;;;;;;15.40;6.50;;;21.20;1.00;;;;;;4989388;28;20576;-78
2023/09/07 06:50:48;;;;;;;13.07;8.43;;;21.10;1.00;;;;;;4996742;28;20208;-78
2023/09/07 06:53:16;;;;;;;9.38;6.07;;;21.10;1.00;;;;;;4995064;28;20208;-78
2023/09/07 06:55:43;;;;;;;8.70;6.47;;;21.20;1.00;;;;;;5003149;28;20204;-79
2023/09/07 06:58:11;;;;;;;6.53;5.70;;;21.20;1.00;;;;;;4996335;28;20232;-78
2023/09/07 07:00:38;;;;;;;6.53;5.90;;;21.10;1.00;;;;;;4996919;28;20192;-78
2023/09/07 07:03:05;;;;;;;5.95;5.30;;;21.10;1.00;;;;;;4995754;28;20204;-79
2023/09/07 07:05:33;;;;;;;7.20;5.97;;;21.20;1.00;;;;;;4993672;28;20197;-79
2023/09/07 07:08:02;;;;;;;6.47;5.85;;;21.30;1.00;;;;;;4993698;28;20188;-78
2023/09/07 07:10:30;;;;;;;6.43;5.80;;;21.40;1.00;;;;;;5002995;28;20216;-78
2023/09/07 07:12:57;;;;;;;6.18;5.53;;;21.50;1.00;;;;;;4996074;28;20201;-79
2023/09/07 07:15:25;;;;;;;8.68;5.75;;;21.60;1.00;;;;;;4990496;28;20200;-78
2023/09/07 07:17:52;;;;;;;9.30;6.72;;;21.70;1.00;;;;;;4994338;28;20618;-79
2023/09/07 07:20:20;;;;;;;7.95;5.35;;;21.80;99.90;;;;;;4998374;28;20216;-78
2023/09/07 07:22:47;;;;;;;8.23;6.00;;;21.70;99.90;;;;;;4994342;28;20196;-78
2023/09/07 07:25:19;;;;;;;7.18;5.63;;;21.80;99.90;;;;;;4996901;28;20204;-79
2023/09/07 07:27:47;;;;;;;7.90;5.55;;;21.80;99.90;;;;;;4992895;28;20568;-78
2023/09/07 07:30:15;;;;;;;9.25;6.00;;;21.80;99.90;;;;;;4998241;28;20223;-78
2023/09/07 07:32:42;;;;;;;10.95;5.47;;;21.80;99.90;;;;;;5008982;28;20195;-78
2023/09/07 07:35:10;;;;;;;7.45;5.65;;;21.80;99.90;;;;;;4992868;28;20197;-78
2023/09/07 07:37:37;;;;;;;7.13;5.45;;;21.80;99.90;;;;;;5005010;28;20215;-79
2023/09/07 07:40:07;;;;;;;8.35;5.43;;;21.80;99.90;;;;;;4983378;28;20228;-79
2023/09/07 07:42:36;;;;;;;7.60;5.43;;;21.80;99.90;;;;;;4988511;28;20212;-78
2023/09/07 07:45:04;;;;;;;7.28;5.60;;;21.90;99.90;;;;;;4995925;28;20203;-79
2023/09/07 07:47:31;;;;;;;8.90;5.35;;;22.00;91.40;;;;;;4989470;28;20193;-78
2023/09/07 07:49:59;;;;;;;9.38;5.70;;;22.00;99.90;;;;;;5005167;28;20242;-78
2023/09/07 07:52:27;;;;;;;10.18;5.82;;;22.20;32.70;;;;;;5005629;28;20199;-79
2023/09/07 07:54:54;;;;;;;8.70;5.60;;;22.30;20.30;;;;;;5019390;28;20200;-78
2023/09/07 07:57:22;;;;;;;7.35;5.47;;;22.40;89.60;;;;;;4993434;28;20285;-79
2023/09/07 07:59:51;;;;;;;7.78;5.65;;;22.60;1.10;;;;;;4997576;28;20220;-79
2023/09/07 08:02:20;;;;;;;11.90;6.43;;;22.60;17.90;;;;;;5000258;28;20200;-79
2023/09/07 08:04:48;;;;;;;11.23;5.97;;;22.80;19.80;;;;;;5001806;28;20200;-78
2023/09/07 08:07:16;;;;;;;7.15;5.47;;;22.90;11.70;;;;;;5002849;28;20196;-78
2023/09/07 08:09:43;;;;;;;7.75;5.32;;;22.90;7.40;;;;;;4998902;28;20247;-78
2023/09/07 08:12:11;;;;;;;8.52;5.75;;;22.90;1.00;;;;;;5001441;28;20200;-79
2023/09/07 08:14:38;;;;;;;10.20;5.68;;;23.00;1.00;;;;;;5000577;28;20201;-79
2023/09/07 08:17:07;;;;;;;6.68;5.07;;;23.20;1.00;;;;;;4998797;28;20224;-79
2023/09/07 08:19:35;;;;;;;8.27;5.20;;;23.30;1.00;;;;;;4995792;28;20220;-78
2023/09/07 08:22:04;;;;;;;5.55;4.93;;;23.40;1.00;;;;;;4997994;28;20276;-78
2023/09/07 08:24:31;;;;;;;6.28;5.15;;;23.60;1.00;;;;;;4998497;28;20690;-78
2023/09/07 08:26:59;;;;;;;5.68;4.45;;;23.70;1.00;;;;;;5003519;28;20649;-78
2023/09/07 08:29:31;;;;;;;6.75;4.55;;;23.70;1.00;;;;;;5000789;28;20220;-78
2023/09/07 08:32:01;;;;;;;7.25;4.90;;;23.70;1.00;;;;;;5000255;28;20212;-79
2023/09/07 08:34:31;;;;;;;6.43;5.13;;;23.80;1.00;;;;;;4999792;28;20203;-79
2023/09/07 08:37:00;;;;;;;6.47;4.53;;;23.90;1.00;;;;;;5002010;28;20226;-79
2023/09/07 08:39:27;;;;;;;6.80;4.88;;;24.10;1.00;;;;;;4998248;28;20225;-79
2023/09/07 08:41:58;;;;;;;6.50;4.60;;;24.10;1.00;;;;;;4996412;28;20277;-78
2023/09/07 08:44:27;;;;;;;7.60;4.95;;;24.10;99.90;;;;;;4991708;28;20215;-78
2023/09/07 08:46:54;;;;;;;7.68;4.75;;;24.20;99.90;;;;;;5001960;28;20192;-79
2023/09/07 08:49:23;;;;;;;8.45;4.82;;;24.30;99.90;;;;;;5002236;28;20219;-79
2023/09/07 08:51:52;;;;;;;6.25;4.88;;;24.30;99.90;;;;;;4998535;28;20207;-79
2023/09/07 08:54:21;;;;;;;6.03;4.82;;;24.40;99.90;;;;;;4997398;28;20208;-79
2023/09/07 08:56:50;;;;;;;7.32;4.43;;;24.50;99.90;;;;;;4998241;28;20203;-78
2023/09/07 08:59:17;;;;;;;6.28;5.13;;;24.50;99.90;;;;;;4998937;28;20717;-79
2023/09/07 09:01:45;;;;;;;4.85;4.45;;;24.60;99.90;;;;;;4999242;28;20203;-79
2023/09/07 09:04:12;;;;;;;8.20;4.85;;;24.60;99.90;;;;;;4999598;28;20556;-79
2023/09/07 09:06:40;;;;;;;5.53;4.72;;;24.70;99.90;;;;;;4993770;28;20208;-79
2023/09/07 09:09:08;;;;;;;8.88;5.32;;;24.70;99.90;;;;;;5000186;28;20216;-79
2023/09/07 09:11:36;;;;;;;6.55;4.93;;;24.90;99.90;;;;;;4997873;28;20200;-78
2023/09/07 09:14:07;;;;;;;5.28;4.65;;;24.90;1.00;;;;;;4994409;28;20204;-79
2023/09/07 09:16:34;;;;;;;6.78;4.80;;;25.00;99.90;;;;;;4996790;28;20212;-78
2023/09/07 09:19:02;;;;;;;5.47;4.78;;;25.10;99.90;;;;;;4995277;28;20227;-78
2023/09/07 09:21:30;;;;;;;6.28;4.30;;;25.30;1.00;;;;;;4996316;28;20201;-78
2023/09/07 09:24:00;;;;;;;5.32;4.05;;;25.40;99.90;;;;;;4987724;28;20216;-78
2023/09/07 09:26:29;;;;;;;4.50;4.10;;;25.40;99.90;;;;;;4993637;28;20423;-78
2023/09/07 09:28:57;;;;;;;4.75;4.35;;;25.50;99.90;;;;;;4991605;28;20588;-79
2023/09/07 09:31:25;;;;;;;4.32;3.92;;;25.50;99.90;;;;;;4997946;28;20200;-78
2023/09/07 09:33:52;;;;;;;5.68;4.18;;;25.60;99.90;;;;;;5003618;28;20204;-78
2023/09/07 09:36:20;;;;;;;4.50;4.10;;;25.60;99.90;;;;;;4998713;28;20200;-78
2023/09/07 09:38:50;;;;;;;6.35;4.13;;;25.70;99.90;;;;;;4995301;28;20232;-79
2023/09/07 09:41:18;;;;;;;4.78;4.30;;;25.70;99.90;;;;;;4999109;28;20196;-79
2023/09/07 09:43:49;;;;;;;4.70;4.20;;;25.80;99.90;;;;;;4999395;28;20579;-78
2023/09/07 09:46:16;;;;;;;4.70;4.15;;;25.80;99.90;;;;;;4996833;28;20204;-78
2023/09/07 09:48:44;;;;;;;6.07;4.60;;;25.80;99.90;;;;;;4992229;28;20213;-78
2023/09/07 09:51:12;;;;;;;4.68;4.18;;;25.80;99.90;;;;;;5000617;28;20222;-78
2023/09/07 09:53:40;;;;;;;5.30;4.07;;;25.90;99.90;;;;;;4997647;28;20216;-79
2023/09/07 09:56:07;;;;;;;4.82;4.43;;;25.90;99.90;;;;;;4996824;28;20566;-79
2023/09/07 09:58:34;;;;;;;4.95;4.55;;;26.00;99.90;;;;;;4998926;28;20220;-78
2023/09/07 10:01:07;;;;;;;4.68;4.28;;;26.10;99.90;;;;;;5003205;28;20211;-79
2023/09/07 10:03:44;;;;;;;4.13;3.72;;;26.20;99.90;;;;;;5000078;28;20208;-79
2023/09/07 10:06:13;;;;;;;8.52;4.45;;;26.30;99.90;;;;;;4998110;28;20246;-79
2023/09/07 10:08:41;;;;;;;4.53;4.00;;;26.40;99.90;;;;;;4997413;28;20672;-78
2023/09/07 10:11:10;;;;;;;6.18;4.32;;;26.40;99.90;;;;;;5034763;23;20220;-84
2023/09/07 10:13:37;;;;;;;5.18;4.68;;;26.40;99.90;;;;;;5022202;28;20200;-85
2023/09/07 10:16:08;;;;;;;4.78;4.30;;;26.50;97.20;;;;;;5030381;28;20199;-85
2023/09/07 10:18:37;;;;;;;5.20;4.57;;;26.50;76.30;;;;;;5028078;28;20215;-85
2023/09/07 10:21:04;;;;;;;4.88;4.22;;;26.70;99.90;;;;;;5012650;28;20216;-84
2023/09/07 10:23:39;;;;;;;4.80;4.40;;;26.70;65.50;;;;;;5008777;28;20212;-84
2023/09/07 10:26:13;;;;;;;5.22;4.47;;;26.70;40.60;;;;;;5004109;28;20693;-85
2023/09/07 10:28:40;;;;;;;4.90;4.50;;;26.90;99.90;;;;;;5009686;28;20196;-85
2023/09/07 10:31:16;;;;;;;4.53;4.13;;;27.00;99.90;;;;;;4999537;28;20226;-82
2023/09/07 10:33:44;;;;;;;5.35;4.55;;;27.10;99.90;;;;;;4999564;28;20192;-82
2023/09/07 10:36:22;;;;;;;5.07;4.50;;;27.30;99.90;;;;;;5009629;28;20197;-83
2023/09/07 10:38:52;;;;;;;5.03;4.38;;;27.40;99.90;;;;;;4981952;28;20690;-82
2023/09/07 10:41:20;;;;;;;4.78;4.38;;;27.40;99.90;;;;;;5029851;28;20224;-83
2023/09/07 10:43:49;;;;;;;6.18;4.47;;;27.40;99.90;;;;;;5002476;28;20204;-82
2023/09/07 10:46:20;;;;;;;5.53;4.22;;;27.40;98.40;;;;;;4993016;28;20211;-83
2023/09/07 10:48:50;;;;;;;5.38;4.18;;;27.50;99.90;;;;;;4997762;28;20207;-83
2023/09/07 10:51:18;;;;;;;4.45;4.05;;;27.60;87.80;;;;;;5013796;28;20231;-84
2023/09/07 10:53:46;;;;;;;4.65;4.25;;;27.70;99.90;;;;;;4989997;28;20201;-83
2023/09/07 10:56:14;;;;;;;4.47;4.07;;;27.70;99.90;;;;;;5008594;28;20204;-83
2023/09/07 10:58:43;;;;;;;4.60;4.18;;;27.80;99.90;;;;;;5024404;28;20560;-83
2023/09/07 11:01:11;;;;;;;6.47;4.55;;;27.70;99.90;;;;;;5006250;28;20231;-83
2023/09/07 11:03:40;;;;;;;4.78;4.35;;;27.70;99.90;;;;;;5007824;28;20203;-83
2023/09/07 11:06:11;;;;;;;5.25;4.75;;;27.80;99.90;;;;;;5039857;28;20199;-84
2023/09/07 11:08:39;;;;;;;9.50;4.20;;;28.00;99.90;;;;;;5023055;28;20191;-83
2023/09/07 11:11:07;;;;;;;5.35;4.50;;;28.20;99.90;;;;;;5011457;28;20236;-84
2023/09/07 11:13:34;;;;;;;4.85;4.13;;;28.30;99.90;;;;;;5001000;28;20205;-84
2023/09/07 11:16:02;;;;;;;4.63;4.22;;;28.40;99.90;;;;;;5002775;28;20650;-84
2023/09/07 11:18:29;;;;;;;4.63;4.28;;;28.60;99.90;;;;;;5019235;28;20227;-84
2023/09/07 11:20:59;;;;;;;4.95;4.47;;;28.90;99.90;;;;;;5008014;28;20224;-84
2023/09/07 11:23:28;;;;;;;5.15;4.60;;;28.80;99.90;;;;;;4993089;28;20220;-84
2023/09/07 11:25:55;;;;;;;5.22;4.68;;;28.90;99.90;;;;;;5011312;28;20681;-84
2023/09/07 11:28:24;;;;;;;5.22;4.80;;;28.70;99.90;;;;;;4997236;28;20207;-84
2023/09/07 11:30:53;;;;;;;5.63;4.18;;;28.70;99.90;;;;;;5009395;28;20216;-84
2023/09/07 11:33:22;;;;;;;5.05;4.20;;;29.00;99.90;;;;;;4994649;28;20569;-84
2023/09/07 11:35:50;;;;;;;7.38;4.68;;;29.00;1.00;;;;;;4981481;28;20208;-84
2023/09/07 11:38:19;;;;;;;4.72;4.32;;;29.00;99.90;;;;;;4989825;28;20204;-84
2023/09/07 11:40:47;;;;;;;4.43;4.03;;;28.80;99.90;;;;;;4988440;28;20231;-84
2023/09/07 11:43:15;;;;;;;4.60;4.20;;;28.90;19.20;;;;;;4991723;28;20208;-84
2023/09/07 11:45:44;;;;;;;4.80;4.35;;;29.00;99.90;;;;;;4986831;28;20205;-84
2023/09/07 11:48:12;;;;;;;4.78;4.28;;;29.30;1.00;;;;;;5003350;28;20202;-84
2023/09/07 11:50:41;;;;;;;6.90;3.97;;;29.20;99.90;;;;;;5026775;28;20239;-84
2023/09/07 11:53:08;;;;;;;4.38;3.97;;;29.40;1.00;;;;;;5007562;28;20600;-84
2023/09/07 11:55:39;;;;;;;4.72;3.97;;;29.60;99.90;;;;;;4992756;28;20199;-84
2023/09/07 11:58:06;;;;;;;6.60;4.53;;;29.70;1.00;;;;;;5008795;28;20205;-84
2023/09/07 12:00:34;;;;;;;5.22;4.80;;;29.60;99.90;;;;;;4995546;28;20234;-84
2023/09/07 12:03:01;;;;;;;4.90;4.40;;;29.50;1.00;;;;;;5016933;28;20200;-84
2023/09/07 12:05:29;;;;;;;5.55;5.03;;;29.80;1.00;;;;;;5008752;28;20586;-84
2023/09/07 12:07:57;;;;;;;5.22;4.75;;;30.00;99.90;;;;;;5025184;28;20204;-84
2023/09/07 12:10:24;;;;;;;6.78;5.20;;;30.30;99.90;;;;;;5021299;28;20231;-84
2023/09/07 12:12:53;;;;;;;6.55;4.93;;;30.50;1.00;;;;;;5014876;28;20192;-84
2023/09/07 12:15:21;;;;;;;5.00;4.50;;;30.30;99.90;;;;;;4988857;28;20205;-84
2023/09/07 12:17:54;;;;;;;5.05;4.65;;;31.00;1.00;;;;;;5010525;28;20220;-84
2023/09/07 12:20:21;;;;;;;5.25;4.70;;;30.90;99.90;;;;;;4999508;28;20224;-84
2023/09/07 12:22:49;;;;;;;5.55;4.63;;;30.90;1.00;;;;;;5003039;28;20196;-84
2023/09/07 12:25:17;;;;;;;5.45;4.88;;;30.60;99.90;;;;;;5005447;28;20204;-84
2023/09/07 12:27:46;;;;;;;5.47;4.63;;;30.70;99.90;;;;;;4991384;28;20200;-84
2023/09/07 12:30:18;;;;;;;6.20;4.38;;;30.90;99.90;;;;;;5010790;28;20296;-84
2023/09/07 12:32:45;;;;;;;4.88;4.38;;;30.80;99.90;;;;;;5014702;28;20657;-84
2023/09/07 12:35:14;;;;;;;5.93;5.00;;;30.90;99.90;;;;;;4993794;28;20209;-84
2023/09/07 12:37:42;;;;;;;5.15;4.65;;;30.90;99.90;;;;;;5004075;28;20196;-84
2023/09/07 12:40:12;;;;;;;4.90;4.53;;;31.80;99.90;;;;;;5013606;28;20212;-84
2023/09/07 12:42:41;;;;;;;5.90;5.00;;;31.90;99.90;;;;;;5022083;28;20204;-84
2023/09/07 12:45:10;;;;;;;10.50;5.13;;;32.00;99.90;;;;;;5013279;28;20209;-84
2023/09/07 12:47:39;;;;;;;5.57;5.13;;;32.00;99.90;;;;;;4996899;28;20219;-84
2023/09/07 12:50:08;;;;;;;6.90;4.88;;;32.10;99.90;;;;;;4994170;28;20193;-84
2023/09/07 12:52:37;;;;;;;5.55;5.05;;;32.40;99.90;;;;;;4996260;28;20200;-84
2023/09/07 12:55:05;;;;;;;5.75;5.05;;;32.50;99.90;;;;;;5006853;28;20207;-84